createdAt,value
2022-08-22T00:26:24.722Z,4.21
2022-08-22T00:36:01.648Z,4.21
2022-08-22T01:04:52.816Z,4.21
2022-08-22T01:33:43.956Z,4.21
2022-08-22T02:02:34.438Z,4.2
2022-08-22T02:12:13.817Z,4.2
2022-08-22T02:31:25.083Z,4.21
2022-08-22T02:50:38.288Z,4.2
2022-08-22T03:29:05.860Z,4.2
2022-08-22T03:38:43.183Z,4.2
2022-08-22T03:57:57.032Z,4.2
2022-08-22T04:46:02.653Z,4.2
2022-08-22T05:14:55.336Z,4.2
2022-08-22T05:24:32.253Z,4.2
2022-08-22T05:34:09.976Z,4.2
2022-08-22T05:53:25.490Z,4.2
2022-08-22T06:03:03.154Z,4.2
2022-08-22T06:12:43.125Z,4.2
2022-08-22T06:31:56.664Z,4.2
2022-08-22T06:41:34.597Z,4.2
2022-08-22T06:51:12.176Z,4.2
2022-08-22T07:58:38.104Z,4.2
2022-08-22T08:17:54.370Z,4.2
2022-08-22T08:46:55.356Z,4.21
2022-08-22T08:56:28.353Z,4.21
2022-08-22T09:15:54.911Z,4.21
2022-08-22T09:35:06.294Z,4.22
2022-08-22T09:44:45.244Z,4.22
2022-08-22T09:54:31.040Z,4.24
2022-08-22T10:14:04.414Z,4.28
2022-08-22T10:23:49.595Z,4.28
2022-08-22T11:02:30.817Z,4.29
2022-08-22T11:12:11.847Z,4.29
2022-08-22T11:41:03.739Z,4.29
2022-08-22T12:00:16.257Z,4.28
2022-08-22T12:29:01.123Z,4.27
2022-08-22T12:58:01.363Z,4.27
2022-08-22T13:17:23.984Z,4.26
2022-08-22T13:36:22.024Z,4.25
2022-08-22T13:46:01.767Z,4.26
2022-08-22T14:05:15.457Z,4.26
2022-08-22T14:34:29.617Z,4.29
2022-08-22T15:41:22.789Z,4.25
2022-08-22T16:00:34.038Z,4.25
2022-08-22T16:10:11.874Z,4.25
2022-08-22T16:19:49.276Z,4.25
2022-08-22T16:29:26.214Z,4.25
2022-08-22T16:48:39.207Z,4.25
2022-08-22T17:36:42.756Z,4.24
2022-08-22T17:55:55.557Z,4.24
2022-08-22T19:03:11.386Z,4.23
2022-08-22T19:22:25.009Z,4.23
2022-08-22T19:32:01.747Z,4.23
2022-08-22T20:00:53.558Z,4.23
2022-08-22T20:10:28.953Z,4.23
2022-08-22T20:20:24.020Z,4.23
2022-08-22T20:29:42.860Z,4.23
2022-08-22T20:39:20.240Z,4.23
2022-08-22T20:48:57.268Z,4.23
2022-08-22T20:58:34.430Z,4.23
2022-08-22T21:27:25.494Z,4.23
2022-08-22T21:37:02.330Z,4.23
2022-08-22T21:46:39.662Z,4.23
2022-08-22T21:56:16.614Z,4.23
2022-08-22T22:05:53.476Z,4.23
2022-08-22T22:15:30.437Z,4.23
2022-08-22T22:34:44.461Z,4.23
2022-08-22T23:13:12.763Z,4.22
2022-08-22T23:22:49.914Z,4.22
2022-08-22T23:32:26.842Z,4.22
